createdAt,value
2018-10-19T00:00:44.856Z,74.76
2018-10-19T00:03:14.118Z,75.73
2018-10-19T00:05:43.243Z,74.64
2018-10-19T00:08:12.484Z,74.68
2018-10-19T00:10:41.649Z,75.36
2018-10-19T00:13:10.897Z,75.31
2018-10-19T00:15:40.095Z,75.22
2018-10-19T00:18:09.499Z,75.32
2018-10-19T00:20:38.660Z,75.09
2018-10-19T00:23:07.862Z,74.93
2018-10-19T00:25:37.039Z,75.02
2018-10-19T00:28:06.282Z,75.01
2018-10-19T00:30:35.433Z,74.94
2018-10-19T00:33:04.708Z,74.80
2018-10-19T00:35:33.931Z,75.20
2018-10-19T00:38:03.138Z,75.06
2018-10-19T00:40:32.337Z,75.27
2018-10-19T00:43:01.543Z,75.23
2018-10-19T00:45:36.002Z,74.88
2018-10-19T00:48:12.195Z,75.10
2018-10-19T00:50:42.745Z,75.08
2018-10-19T00:53:12.521Z,74.72
2018-10-19T00:55:41.824Z,74.72
2018-10-19T00:58:11.247Z,75.29
2018-10-19T01:00:41.804Z,74.89
2018-10-19T01:03:11.210Z,75.20
2018-10-19T01:05:41.016Z,75.13
2018-10-19T01:08:11.157Z,75.36
2018-10-19T01:10:40.336Z,74.94
2018-10-19T01:13:09.572Z,75.03
2018-10-19T01:15:38.767Z,75.18
2018-10-19T01:18:08.008Z,74.98
2018-10-19T01:20:37.193Z,75.36
2018-10-19T01:23:06.638Z,74.97
2018-10-19T01:25:40.026Z,74.91
2018-10-19T01:28:09.708Z,75.35
2018-10-19T01:30:39.002Z,75.59
2018-10-19T01:33:08.211Z,75.28
2018-10-19T01:35:37.331Z,75.23
2018-10-19T01:38:06.758Z,75.69
2018-10-19T01:40:36.239Z,75.74
2018-10-19T01:43:05.443Z,75.25
2018-10-19T01:45:34.585Z,75.28
2018-10-19T01:48:03.737Z,75.52
2018-10-19T01:50:32.949Z,75.55
2018-10-19T01:53:02.125Z,75.12
2018-10-19T01:55:31.253Z,75.98
2018-10-19T01:58:00.429Z,75.74
2018-10-19T02:00:29.569Z,75.80
2018-10-19T02:02:58.788Z,75.76
2018-10-19T02:05:27.972Z,75.93
2018-10-19T02:07:57.199Z,76.04
2018-10-19T02:10:26.424Z,76.21
2018-10-19T02:12:55.632Z,76.04
2018-10-19T02:15:24.854Z,76.32
2018-10-19T02:17:54.001Z,76.01
2018-10-19T02:20:23.169Z,75.75
2018-10-19T02:22:52.313Z,76.31
2018-10-19T02:25:21.445Z,76.17
2018-10-19T02:27:50.616Z,76.23
2018-10-19T02:30:19.757Z,75.93
2018-10-19T02:32:49.074Z,75.76
2018-10-19T02:35:18.294Z,76.03
2018-10-19T02:37:47.346Z,75.86
2018-10-19T02:40:16.604Z,76.25
2018-10-19T02:42:45.758Z,76.27
2018-10-19T02:45:14.996Z,76.22
2018-10-19T02:47:44.082Z,76.34
2018-10-19T02:50:13.291Z,75.98
2018-10-19T02:52:42.440Z,76.19
2018-10-19T02:55:11.596Z,76.68
2018-10-19T02:57:40.739Z,76.47
2018-10-19T03:00:11.657Z,76.62
2018-10-19T03:02:41.265Z,76.99
2018-10-19T03:05:10.839Z,76.88
2018-10-19T03:07:40.173Z,76.52
2018-10-19T03:10:09.723Z,77.37
2018-10-19T03:12:38.878Z,77.13
2018-10-19T03:15:08.885Z,76.75
2018-10-19T03:17:38.236Z,76.73
2018-10-19T03:20:08.514Z,76.84
2018-10-19T03:22:38.175Z,77.85
2018-10-19T03:25:07.746Z,77.96
2018-10-19T03:27:36.922Z,78.42
2018-10-19T03:30:06.889Z,78.85
2018-10-19T03:32:36.090Z,78.93
2018-10-19T03:35:06.242Z,79.64
2018-10-19T03:37:35.424Z,80.03
2018-10-19T03:40:04.777Z,79.97
2018-10-19T03:42:34.063Z,80.08
2018-10-19T03:45:03.311Z,80.78
2018-10-19T03:47:32.441Z,80.44
2018-10-19T03:50:01.657Z,81.01
2018-10-19T03:52:30.789Z,80.76
2018-10-19T03:54:59.965Z,80.44
2018-10-19T03:57:29.100Z,81.03
2018-10-19T03:59:58.305Z,80.56
2018-10-19T04:02:27.525Z,80.63
2018-10-19T04:04:56.696Z,80.21
2018-10-19T04:07:25.804Z,80.59
2018-10-19T04:09:54.929Z,80.31
2018-10-19T04:12:24.083Z,79.97
2018-10-19T04:14:53.276Z,79.80
2018-10-19T04:17:22.366Z,79.82
2018-10-19T04:19:52.375Z,79.81
2018-10-19T04:22:21.561Z,79.37
2018-10-19T04:24:50.744Z,79.38
2018-10-19T04:27:20.098Z,78.58
2018-10-19T04:29:49.197Z,78.86
2018-10-19T04:32:18.333Z,78.07
2018-10-19T04:34:47.488Z,77.81
2018-10-19T04:37:16.655Z,77.69
2018-10-19T04:39:45.845Z,77.75
2018-10-19T04:42:15.082Z,78.28
2018-10-19T04:44:44.207Z,77.75
2018-10-19T04:47:13.511Z,77.47
2018-10-19T04:49:42.612Z,78.10
2018-10-19T04:52:11.777Z,77.45
2018-10-19T04:54:41.038Z,76.70
2018-10-19T04:57:10.285Z,76.95
2018-10-19T04:59:39.415Z,76.97
2018-10-19T05:02:08.583Z,76.94
2018-10-19T05:04:37.757Z,77.21
2018-10-19T05:07:06.874Z,77.17
2018-10-19T05:09:36.057Z,77.65
2018-10-19T05:12:05.243Z,77.55
2018-10-19T05:14:34.392Z,77.67
2018-10-19T05:17:03.620Z,77.90
2018-10-19T05:19:32.705Z,77.60
2018-10-19T05:22:01.862Z,77.55
2018-10-19T05:24:31.071Z,77.43
2018-10-19T05:27:00.289Z,78.25
2018-10-19T05:29:29.457Z,78.25
2018-10-19T05:31:58.686Z,78.67
2018-10-19T05:34:27.814Z,78.25
2018-10-19T05:36:57.037Z,78.36
2018-10-19T05:39:26.245Z,78.91
2018-10-19T05:41:55.460Z,78.34
2018-10-19T05:44:24.648Z,78.25
2018-10-19T05:46:53.831Z,78.36
2018-10-19T05:49:22.973Z,77.87
2018-10-19T05:51:52.165Z,77.62
2018-10-19T05:54:21.289Z,77.94
2018-10-19T05:56:50.433Z,77.69
2018-10-19T05:59:19.563Z,77.47
2018-10-19T06:01:48.926Z,77.64
2018-10-19T06:04:18.136Z,78.03
2018-10-19T06:06:47.276Z,78.39
2018-10-19T06:09:16.452Z,78.29
2018-10-19T06:11:45.644Z,78.52
2018-10-19T06:14:15.046Z,78.60
2018-10-19T06:16:44.302Z,78.47
2018-10-19T06:19:13.610Z,78.25
2018-10-19T06:21:42.977Z,78.46
2018-10-19T06:24:12.157Z,78.16
2018-10-19T06:26:41.307Z,78.12
2018-10-19T06:29:10.532Z,78.47
2018-10-19T06:31:39.678Z,78.58
2018-10-19T06:34:09.007Z,78.36
2018-10-19T06:36:38.255Z,78.48
2018-10-19T06:39:10.445Z,78.24
2018-10-19T06:41:39.727Z,78.48
2018-10-19T06:44:09.358Z,78.07
2018-10-19T06:46:38.527Z,78.15
2018-10-19T06:49:07.748Z,77.82
2018-10-19T06:51:36.859Z,78.18
2018-10-19T06:54:06.373Z,78.43
2018-10-19T06:56:35.575Z,79.19
2018-10-19T06:59:04.868Z,78.85
2018-10-19T07:01:33.988Z,78.79
2018-10-19T07:04:03.188Z,79.07
2018-10-19T07:06:32.381Z,78.55
2018-10-19T07:09:01.801Z,78.54
2018-10-19T07:11:31.053Z,78.34
2018-10-19T07:14:00.210Z,77.54
2018-10-19T07:16:29.384Z,76.30
2018-10-19T07:18:58.551Z,76.40
2018-10-19T07:21:27.659Z,77.49
2018-10-19T07:23:56.789Z,78.24
2018-10-19T07:26:25.921Z,77.99
2018-10-19T07:28:55.347Z,78.90
2018-10-19T07:31:24.481Z,77.88
2018-10-19T07:33:54.334Z,78.34
2018-10-19T07:36:23.846Z,78.28
2018-10-19T07:38:53.040Z,78.22
2018-10-19T07:41:22.237Z,78.11
2018-10-19T07:43:51.363Z,78.07
2018-10-19T07:46:20.520Z,77.86
2018-10-19T07:48:49.660Z,77.72
2018-10-19T07:51:18.784Z,77.96
2018-10-19T07:53:47.909Z,76.89
2018-10-19T07:56:23.412Z,77.62
2018-10-19T07:58:52.539Z,77.72
2018-10-19T08:01:21.671Z,77.45
2018-10-19T08:03:50.860Z,77.52
2018-10-19T08:06:20.001Z,77.04
2018-10-19T08:08:49.199Z,77.96
2018-10-19T08:11:18.409Z,77.90
2018-10-19T08:13:47.488Z,78.78
2018-10-19T08:16:16.656Z,79.06
2018-10-19T08:18:45.818Z,79.90
2018-10-19T08:21:14.996Z,79.09
2018-10-19T08:23:44.337Z,79.64
2018-10-19T08:26:13.577Z,80.03
2018-10-19T08:28:42.681Z,80.11
2018-10-19T08:31:11.978Z,80.56
2018-10-19T08:33:41.228Z,80.04
2018-10-19T08:36:10.412Z,80.29
2018-10-19T08:38:39.611Z,80.22
2018-10-19T08:41:08.848Z,80.19
2018-10-19T08:43:37.991Z,79.99
2018-10-19T08:46:12.346Z,80.08
2018-10-19T08:48:41.577Z,80.42
2018-10-19T08:51:10.831Z,80.59
2018-10-19T08:53:39.973Z,80.29
2018-10-19T08:56:09.049Z,79.54
2018-10-19T08:58:38.257Z,79.49
2018-10-19T09:01:07.539Z,80.30
2018-10-19T09:03:36.853Z,79.90
2018-10-19T09:06:06.395Z,80.64
2018-10-19T09:08:35.522Z,80.53
2018-10-19T09:11:04.740Z,80.44
2018-10-19T09:13:33.888Z,79.75
2018-10-19T09:16:03.100Z,80.85
2018-10-19T09:18:32.372Z,80.84
2018-10-19T09:21:01.643Z,80.24
2018-10-19T09:23:30.725Z,80.53
2018-10-19T09:25:59.893Z,80.65
2018-10-19T09:28:29.055Z,80.23
2018-10-19T09:30:58.295Z,80.35
2018-10-19T09:33:27.468Z,79.65
2018-10-19T09:35:56.692Z,80.56
2018-10-19T09:38:25.765Z,80.58
2018-10-19T09:40:55.022Z,81.09
2018-10-19T09:43:24.098Z,80.53
2018-10-19T09:45:53.286Z,81.04
2018-10-19T09:48:22.492Z,80.14
2018-10-19T09:50:51.718Z,80.45
2018-10-19T09:53:20.841Z,80.21
2018-10-19T09:55:50.000Z,80.37
2018-10-19T09:58:19.141Z,79.90
2018-10-19T10:00:53.619Z,80.11
2018-10-19T10:03:22.714Z,80.02
2018-10-19T10:05:51.892Z,79.89
2018-10-19T10:08:21.547Z,79.99
2018-10-19T10:10:50.720Z,80.23
2018-10-19T10:13:19.984Z,79.42
2018-10-19T10:15:49.199Z,78.88
2018-10-19T10:18:18.416Z,78.48
2018-10-19T10:20:47.569Z,78.70
2018-10-19T10:23:16.801Z,77.81
2018-10-19T10:25:46.017Z,76.95
2018-10-19T10:28:15.274Z,75.84
2018-10-19T10:30:44.344Z,74.70
2018-10-19T10:33:13.522Z,73.29
2018-10-19T10:35:42.721Z,70.67
2018-10-19T10:38:11.924Z,70.01
2018-10-19T10:40:41.064Z,68.03
2018-10-19T10:43:10.345Z,67.39
2018-10-19T10:45:39.463Z,66.97
2018-10-19T10:48:08.607Z,65.34
2018-10-19T10:50:37.729Z,65.93
2018-10-19T10:53:06.994Z,65.45
2018-10-19T10:55:36.389Z,64.81
2018-10-19T10:58:05.961Z,64.24
2018-10-19T11:00:34.441Z,64.17
2018-10-19T11:03:03.007Z,62.52
2018-10-19T11:05:31.527Z,63.32
2018-10-19T11:08:00.717Z,62.96
2018-10-19T11:10:29.929Z,63.09
2018-10-19T11:12:59.172Z,63.18
2018-10-19T11:15:28.329Z,63.10
2018-10-19T11:17:57.557Z,61.44
2018-10-19T11:20:26.786Z,60.61
2018-10-19T11:22:56.139Z,59.96
2018-10-19T11:25:25.408Z,59.72
2018-10-19T11:27:54.602Z,59.56
2018-10-19T11:30:23.810Z,59.03
2018-10-19T11:32:53.009Z,59.12
2018-10-19T11:35:22.202Z,58.14
2018-10-19T11:37:51.385Z,57.23
2018-10-19T11:40:29.280Z,57.31
2018-10-19T11:42:58.627Z,57.76
2018-10-19T11:45:30.286Z,58.03
2018-10-19T11:47:59.460Z,58.93
2018-10-19T11:50:28.843Z,59.13
2018-10-19T11:52:58.029Z,59.51
2018-10-19T11:55:27.178Z,59.50
2018-10-19T11:57:56.377Z,60.01
2018-10-19T12:00:25.580Z,59.99
2018-10-19T12:02:54.712Z,59.61
2018-10-19T12:05:23.863Z,59.55
2018-10-19T12:07:53.077Z,60.80
2018-10-19T12:10:22.221Z,58.47
2018-10-19T12:12:51.537Z,59.23
2018-10-19T12:15:21.905Z,58.73
2018-10-19T12:17:51.100Z,58.91
2018-10-19T12:20:20.265Z,59.94
2018-10-19T12:22:49.418Z,59.80
2018-10-19T12:25:19.061Z,58.97
2018-10-19T12:27:48.213Z,59.24
2018-10-19T12:30:17.414Z,59.01
2018-10-19T12:32:46.545Z,60.07
2018-10-19T12:35:15.923Z,59.26
2018-10-19T12:37:45.173Z,59.65
2018-10-19T12:40:14.321Z,58.96
2018-10-19T12:42:43.498Z,58.25
2018-10-19T12:46:32.933Z,57.69
2018-10-19T12:49:02.145Z,55.93
2018-10-19T12:51:31.269Z,56.08
2018-10-19T12:54:00.557Z,57.00
2018-10-19T12:56:29.688Z,56.14
2018-10-19T12:58:58.922Z,56.20
2018-10-19T13:01:28.993Z,57.02
2018-10-19T13:03:58.805Z,56.11
2018-10-19T13:06:27.956Z,56.11
2018-10-19T13:08:57.202Z,56.11
2018-10-19T13:11:26.719Z,56.62
2018-10-19T13:13:56.044Z,56.96
2018-10-19T13:16:25.317Z,56.67
2018-10-19T13:18:54.624Z,56.09
2018-10-19T13:21:23.785Z,55.67
2018-10-19T13:23:53.044Z,54.76
2018-10-19T13:26:22.206Z,54.37
2018-10-19T13:28:51.392Z,55.10
2018-10-19T13:31:20.531Z,54.38
2018-10-19T13:33:49.743Z,55.28
2018-10-19T13:36:18.921Z,54.53
2018-10-19T13:38:48.189Z,54.60
2018-10-19T13:41:17.345Z,54.03
2018-10-19T13:43:46.627Z,54.09
2018-10-19T13:46:15.807Z,53.78
2018-10-19T13:48:45.024Z,54.61
2018-10-19T13:51:14.399Z,52.94
2018-10-19T13:53:43.711Z,53.42
2018-10-19T13:56:12.888Z,52.42
2018-10-19T13:58:42.083Z,56.04
2018-10-19T14:01:11.315Z,56.11
2018-10-19T14:03:40.544Z,54.09
2018-10-19T14:06:09.759Z,54.17
2018-10-19T14:08:39.170Z,53.63
2018-10-19T14:11:08.393Z,53.18
2018-10-19T14:13:37.597Z,53.01
2018-10-19T14:16:06.793Z,52.54
2018-10-19T14:18:35.970Z,52.96
2018-10-19T14:21:05.624Z,52.27
2018-10-19T14:23:34.853Z,52.41
2018-10-19T14:26:04.021Z,52.94
2018-10-19T14:28:33.161Z,52.78
2018-10-19T14:31:02.357Z,53.43
2018-10-19T14:33:31.662Z,53.28
2018-10-19T14:36:00.674Z,55.08
2018-10-19T14:38:29.811Z,55.51
2018-10-19T14:40:59.032Z,55.50
2018-10-19T14:43:28.202Z,55.75
2018-10-19T14:45:57.350Z,55.91
2018-10-19T14:48:26.533Z,55.88
2018-10-19T14:50:55.789Z,57.46
2018-10-19T14:53:24.965Z,57.09
2018-10-19T14:55:54.152Z,58.16
2018-10-19T14:58:23.355Z,58.50
2018-10-19T15:00:52.527Z,57.62
2018-10-19T15:03:21.854Z,57.67
2018-10-19T15:05:51.033Z,58.00
2018-10-19T15:08:20.228Z,57.96
2018-10-19T15:10:49.570Z,58.52
2018-10-19T15:13:18.603Z,58.62
2018-10-19T15:15:47.800Z,59.26
2018-10-19T15:18:17.072Z,60.19
2018-10-19T15:20:46.166Z,61.11
2018-10-19T15:23:15.347Z,61.14
2018-10-19T15:25:44.540Z,61.14
2018-10-19T15:28:13.751Z,61.78
2018-10-19T15:30:43.073Z,61.03
2018-10-19T15:33:12.353Z,61.61
2018-10-19T15:35:41.469Z,62.40
2018-10-19T15:38:10.688Z,62.47
2018-10-19T15:40:39.895Z,62.98
2018-10-19T15:43:09.133Z,63.03
2018-10-19T15:45:38.372Z,62.98
2018-10-19T15:48:07.647Z,63.87
2018-10-19T15:50:36.896Z,63.89
2018-10-19T15:53:06.240Z,63.47
2018-10-19T15:55:35.391Z,63.82
2018-10-19T15:58:04.597Z,64.05
2018-10-19T16:00:33.779Z,63.73
2018-10-19T16:03:02.929Z,63.87
2018-10-19T16:05:32.073Z,64.47
2018-10-19T16:08:01.197Z,64.64
2018-10-19T16:10:30.436Z,65.22
2018-10-19T16:12:59.625Z,66.12
2018-10-19T16:15:28.815Z,66.46
2018-10-19T16:17:57.972Z,66.06
2018-10-19T16:20:27.382Z,67.06
2018-10-19T16:22:56.538Z,67.27
2018-10-19T16:25:25.741Z,66.95
2018-10-19T16:27:55.099Z,67.30
2018-10-19T16:30:24.237Z,67.88
2018-10-19T16:32:53.426Z,68.08
2018-10-19T16:35:22.593Z,68.06
2018-10-19T16:37:51.745Z,68.56
2018-10-19T16:40:20.889Z,68.18
2018-10-19T16:42:50.072Z,68.35
2018-10-19T16:45:19.210Z,68.68
2018-10-19T16:47:48.457Z,68.29
2018-10-19T16:50:17.692Z,69.32
2018-10-19T16:52:46.861Z,69.30
2018-10-19T16:55:16.016Z,69.51
2018-10-19T16:57:45.191Z,69.32
2018-10-19T17:00:14.486Z,69.16
2018-10-19T17:02:43.642Z,70.35
2018-10-19T17:05:12.812Z,69.90
2018-10-19T17:07:41.980Z,70.14
2018-10-19T17:10:11.145Z,70.59
2018-10-19T17:12:40.364Z,70.58
2018-10-19T17:15:09.559Z,71.09
2018-10-19T17:17:38.709Z,70.32
2018-10-19T17:20:08.249Z,70.87
2018-10-19T17:22:37.964Z,70.73
2018-10-19T17:25:10.530Z,71.16
2018-10-19T17:27:40.049Z,71.52
2018-10-19T17:30:12.887Z,71.55
2018-10-19T17:32:42.138Z,70.98
2018-10-19T17:35:11.361Z,71.39
2018-10-19T17:37:40.575Z,71.98
2018-10-19T17:40:10.404Z,71.34
2018-10-19T17:42:39.557Z,71.40
2018-10-19T17:45:10.340Z,71.81
2018-10-19T17:47:39.665Z,72.04
2018-10-19T17:50:08.854Z,71.65
2018-10-19T17:52:38.153Z,72.47
2018-10-19T17:55:09.469Z,71.93
2018-10-19T17:57:39.164Z,72.25
2018-10-19T18:00:10.291Z,71.51
2018-10-19T18:02:39.461Z,72.22
2018-10-19T18:05:14.319Z,72.19
2018-10-19T18:07:43.425Z,71.75
2018-10-19T18:10:12.592Z,71.91
2018-10-19T18:12:41.775Z,72.22
2018-10-19T18:15:11.014Z,72.55
2018-10-19T18:17:40.073Z,72.62
2018-10-19T18:20:09.330Z,71.80
2018-10-19T18:22:38.641Z,72.24
2018-10-19T18:25:08.041Z,71.98
2018-10-19T18:27:37.253Z,72.40
2018-10-19T18:30:07.294Z,72.54
2018-10-19T18:32:37.089Z,72.33
2018-10-19T18:35:07.943Z,72.70
2018-10-19T18:37:37.101Z,73.03
2018-10-19T18:40:08.713Z,73.35
2018-10-19T18:42:37.934Z,72.93
2018-10-19T18:45:07.982Z,73.21
2018-10-19T18:47:37.490Z,73.37
2018-10-19T18:50:07.282Z,73.62
2018-10-19T18:52:36.520Z,73.50
2018-10-19T18:55:05.913Z,73.87
2018-10-19T18:57:35.121Z,74.25
2018-10-19T19:00:04.401Z,73.83
2018-10-19T19:02:33.582Z,74.04
2018-10-19T19:05:02.852Z,74.58
2018-10-19T19:07:32.168Z,73.84
2018-10-19T19:10:12.765Z,74.08
2018-10-19T19:12:42.031Z,74.31
2018-10-19T19:15:11.936Z,74.58
2018-10-19T19:17:41.312Z,74.38
2018-10-19T19:20:15.784Z,74.73
2018-10-19T19:22:44.918Z,74.74
2018-10-19T19:25:19.407Z,74.57
2018-10-19T19:27:48.616Z,74.51
2018-10-19T19:30:17.948Z,74.96
2018-10-19T19:32:52.531Z,75.05
2018-10-19T19:35:21.876Z,75.67
2018-10-19T19:37:51.216Z,75.78
2018-10-19T19:40:20.574Z,75.69
2018-10-19T19:42:53.494Z,75.38
2018-10-19T19:45:23.166Z,75.59
2018-10-19T19:47:58.285Z,75.22
2018-10-19T19:50:27.718Z,75.26
2018-10-19T19:52:57.998Z,75.28
2018-10-19T19:55:27.486Z,75.22
2018-10-19T19:57:57.653Z,75.22
2018-10-19T20:00:28.057Z,75.34
2018-10-19T20:02:57.685Z,75.36
2018-10-19T20:05:27.222Z,75.36
2018-10-19T20:07:57.322Z,75.92
2018-10-19T20:10:26.960Z,75.47
2018-10-19T20:12:57.894Z,75.46
2018-10-19T20:15:27.482Z,75.93
2018-10-19T20:17:58.587Z,75.52
2018-10-19T20:20:28.305Z,75.71
2018-10-19T20:22:58.001Z,75.74
2018-10-19T20:25:27.649Z,76.21
2018-10-19T20:27:57.129Z,76.06
2018-10-19T20:30:26.870Z,76.33
2018-10-19T20:32:56.356Z,75.92
2018-10-19T20:35:25.812Z,76.40
2018-10-19T20:37:55.371Z,76.14
2018-10-19T20:40:25.169Z,76.48
2018-10-19T20:42:54.593Z,75.97
2018-10-19T20:45:24.090Z,76.44
2018-10-19T20:47:53.425Z,76.34
2018-10-19T20:50:22.877Z,76.20
2018-10-19T20:52:52.396Z,76.54
2018-10-19T20:55:21.673Z,76.22
2018-10-19T20:57:51.093Z,76.45
2018-10-19T21:00:20.569Z,76.74
2018-10-19T21:02:49.955Z,76.89
2018-10-19T21:05:19.336Z,76.64
2018-10-19T21:07:49.136Z,76.55
2018-10-19T21:10:18.609Z,76.45
2018-10-19T21:12:47.974Z,76.69
2018-10-19T21:15:17.378Z,77.08
2018-10-19T21:17:46.863Z,76.70
2018-10-19T21:21:19.196Z,76.73
2018-10-19T21:23:48.576Z,77.18
2018-10-19T21:26:17.981Z,76.99
2018-10-19T21:28:47.636Z,77.13
2018-10-19T21:31:17.015Z,77.34
2018-10-19T21:33:46.398Z,77.17
2018-10-19T21:36:15.903Z,77.17
2018-10-19T21:38:45.393Z,77.30
2018-10-19T21:41:14.842Z,77.29
2018-10-19T21:43:44.073Z,76.94
2018-10-19T21:46:13.423Z,76.98
2018-10-19T21:48:42.785Z,76.54
2018-10-19T21:51:12.135Z,76.73
2018-10-19T21:53:41.505Z,76.94
2018-10-19T21:56:10.907Z,77.46
2018-10-19T21:58:40.265Z,77.51
2018-10-19T22:01:09.578Z,77.46
2018-10-19T22:03:38.916Z,77.25
2018-10-19T22:06:08.291Z,77.22
2018-10-19T22:08:37.730Z,77.32
2018-10-19T22:11:07.089Z,77.53
2018-10-19T22:13:36.444Z,77.88
2018-10-19T22:16:06.592Z,77.63
2018-10-19T22:21:32.971Z,77.55
2018-10-19T22:24:02.160Z,77.74
2018-10-19T22:26:31.466Z,77.79
2018-10-19T22:29:00.645Z,77.95
2018-10-19T22:31:29.835Z,77.51
2018-10-19T22:33:59.049Z,77.87
2018-10-19T22:36:28.241Z,78.27
2018-10-19T22:38:57.465Z,77.74
2018-10-19T22:41:27.026Z,77.77
2018-10-19T22:43:56.200Z,77.76
2018-10-19T22:46:25.415Z,77.51
2018-10-19T22:48:54.740Z,78.05
2018-10-19T22:51:23.891Z,78.10
2018-10-19T22:53:53.073Z,77.70
2018-10-19T22:56:22.311Z,77.79
2018-10-19T22:58:51.483Z,77.80
2018-10-19T23:01:20.741Z,77.83
2018-10-19T23:03:50.537Z,78.28
2018-10-19T23:06:19.713Z,77.90
2018-10-19T23:08:48.944Z,78.10
2018-10-19T23:11:18.235Z,78.53
2018-10-19T23:13:47.393Z,77.90
2018-10-19T23:16:16.605Z,77.74
2018-10-19T23:18:45.858Z,78.42
2018-10-19T23:21:15.033Z,78.13
2018-10-19T23:23:44.241Z,78.34
2018-10-19T23:26:13.403Z,78.45
2018-10-19T23:28:42.565Z,78.50
2018-10-19T23:31:11.787Z,78.37
2018-10-19T23:33:40.929Z,78.46
2018-10-19T23:36:10.119Z,78.39
2018-10-19T23:38:39.265Z,78.37
2018-10-19T23:41:08.434Z,78.12
2018-10-19T23:43:37.629Z,78.37
2018-10-19T23:46:07.053Z,78.50
2018-10-19T23:48:36.210Z,78.49
2018-10-19T23:51:05.662Z,78.63
2018-10-19T23:53:34.868Z,78.75
2018-10-19T23:56:04.001Z,78.89
2018-10-19T23:58:33.189Z,78.42
